sensor_id;sensor_type;location;lat;lon;timestamp;pressure;altitude;pressure_sealevel;temperature;humidity
20105;BME280;10212;42.714;23.310;2023-06-22T00:04:57;95612.09;;;17.66;97.21
20105;BME280;10212;42.714;23.310;2023-06-22T00:14:57;95609.50;;;17.42;98.49
20105;BME280;10212;42.714;23.310;2023-06-22T00:24:58;95601.94;;;17.46;99.00
20105;BME280;10212;42.714;23.310;2023-06-22T00:34:58;95591.31;;;17.41;99.49
20105;BME280;10212;42.714;23.310;2023-06-22T00:44:58;95582.75;;;17.21;100.00
20105;BME280;10212;42.714;23.310;2023-06-22T00:54:59;95589.78;;;17.16;100.00
20105;BME280;10212;42.714;23.310;2023-06-22T01:05:01;95614.53;;;16.91;100.00
20105;BME280;10212;42.714;23.310;2023-06-22T01:15:11;95602.97;;;16.80;100.00
20105;BME280;10212;42.714;23.310;2023-06-22T01:25:19;95599.16;;;16.75;100.00
20105;BME280;10212;42.714;23.310;2023-06-22T01:35:21;95619.00;;;16.66;100.00
20105;BME280;10212;42.714;23.310;2023-06-22T01:45:21;95617.94;;;16.79;99.70
20105;BME280;10212;42.714;23.310;2023-06-22T01:55:22;95625.63;;;16.57;100.00
20105;BME280;10212;42.714;23.310;2023-06-22T02:05:23;95635.78;;;16.53;98.53
20105;BME280;10212;42.714;23.310;2023-06-22T02:15:26;95634.88;;;16.47;100.00
20105;BME280;10212;42.714;23.310;2023-06-22T02:25:26;95627.09;;;16.64;98.70
20105;BME280;10212;42.714;23.310;2023-06-22T02:35:28;95615.19;;;16.50;97.68
20105;BME280;10212;42.714;23.310;2023-06-22T02:45:32;95628.31;;;16.26;99.94
20105;BME280;10212;42.714;23.310;2023-06-22T02:55:32;95631.72;;;16.14;100.00
20105;BME280;10212;42.714;23.310;2023-06-22T03:05:33;95622.56;;;16.17;100.00
20105;BME280;10212;42.714;23.310;2023-06-22T03:15:35;95652.63;;;16.09;100.00
20105;BME280;10212;42.714;23.310;2023-06-22T03:25:35;95660.22;;;16.18;100.00
20105;BME280;10212;42.714;23.310;2023-06-22T03:35:36;95664.44;;;16.19;100.00
20105;BME280;10212;42.714;23.310;2023-06-22T03:45:36;95673.13;;;16.19;100.00
20105;BME280;10212;42.714;23.310;2023-06-22T03:55:47;95684.28;;;16.33;100.00
20105;BME280;10212;42.714;23.310;2023-06-22T04:06:06;95683.47;;;16.33;100.00
20105;BME280;10212;42.714;23.310;2023-06-22T04:16:07;95659.97;;;16.62;100.00
20105;BME280;10212;42.714;23.310;2023-06-22T04:26:07;95650.91;;;16.70;100.00
20105;BME280;10212;42.714;23.310;2023-06-22T04:36:08;95660.31;;;16.90;100.00
20105;BME280;10212;42.714;23.310;2023-06-22T04:46:08;95658.34;;;17.09;98.66
20105;BME280;10212;42.714;23.310;2023-06-22T04:56:08;95661.25;;;17.31;94.77
20105;BME280;10212;42.714;23.310;2023-06-22T05:06:09;95666.66;;;17.66;92.91
20105;BME280;10212;42.714;23.310;2023-06-22T05:16:09;95660.41;;;17.84;91.33
20105;BME280;10212;42.714;23.310;2023-06-22T05:26:19;95680.38;;;18.21;90.41
20105;BME280;10212;42.714;23.310;2023-06-22T05:36:20;95686.09;;;18.47;88.39
20105;BME280;10212;42.714;23.310;2023-06-22T05:46:21;95696.44;;;18.83;88.06
20105;BME280;10212;42.714;23.310;2023-06-22T05:56:21;95704.50;;;19.11;86.27
20105;BME280;10212;42.714;23.310;2023-06-22T06:06:22;95691.75;;;19.42;84.82
20105;BME280;10212;42.714;23.310;2023-06-22T06:16:32;95688.34;;;19.69;84.14
20105;BME280;10212;42.714;23.310;2023-06-22T06:26:32;95681.22;;;20.15;82.92
20105;BME280;10212;42.714;23.310;2023-06-22T06:36:35;95676.81;;;20.91;78.79
20105;BME280;10212;42.714;23.310;2023-06-22T06:46:36;95669.81;;;21.66;76.46
20105;BME280;10212;42.714;23.310;2023-06-22T06:56:37;95654.53;;;21.95;74.57
20105;BME280;10212;42.714;23.310;2023-06-22T07:06:37;95653.78;;;22.36;70.75
20105;BME280;10212;42.714;23.310;2023-06-22T07:16:37;95657.78;;;22.54;70.51
20105;BME280;10212;42.714;23.310;2023-06-22T07:26:38;95649.31;;;22.83;70.43
20105;BME280;10212;42.714;23.310;2023-06-22T07:36:39;95664.41;;;23.09;68.78
20105;BME280;10212;42.714;23.310;2023-06-22T07:46:39;95663.00;;;23.37;68.56
20105;BME280;10212;42.714;23.310;2023-06-22T07:56:39;95653.00;;;24.30;63.89
20105;BME280;10212;42.714;23.310;2023-06-22T08:06:41;95641.09;;;24.23;66.24
20105;BME280;10212;42.714;23.310;2023-06-22T08:16:41;95630.50;;;24.07;67.16
20105;BME280;10212;42.714;23.310;2023-06-22T08:26:42;95626.50;;;24.50;66.43
20105;BME280;10212;42.714;23.310;2023-06-22T08:36:42;95626.56;;;24.74;67.11
20105;BME280;10212;42.714;23.310;2023-06-22T08:46:43;95625.22;;;25.26;63.84
20105;BME280;10212;42.714;23.310;2023-06-22T08:56:43;95609.44;;;25.29;63.37
20105;BME280;10212;42.714;23.310;2023-06-22T09:06:44;95602.28;;;25.49;62.32
20105;BME280;10212;42.714;23.310;2023-06-22T09:16:47;95606.25;;;25.76;58.28
20105;BME280;10212;42.714;23.310;2023-06-22T09:26:48;95605.59;;;25.85;59.03
20105;BME280;10212;42.714;23.310;2023-06-22T09:36:48;95608.00;;;26.20;58.06
20105;BME280;10212;42.714;23.310;2023-06-22T09:46:49;95598.03;;;26.45;58.71
20105;BME280;10212;42.714;23.310;2023-06-22T09:56:49;95591.38;;;26.76;57.42
20105;BME280;10212;42.714;23.310;2023-06-22T10:06:49;95584.47;;;27.03;59.52
20105;BME280;10212;42.714;23.310;2023-06-22T10:16:52;95579.50;;;27.24;56.15
20105;BME280;10212;42.714;23.310;2023-06-22T10:26:52;95576.16;;;27.32;52.80
20105;BME280;10212;42.714;23.310;2023-06-22T10:36:53;95572.84;;;27.50;50.85
20105;BME280;10212;42.714;23.310;2023-06-22T10:46:53;95563.97;;;27.63;50.73
20105;BME280;10212;42.714;23.310;2023-06-22T10:56:54;95546.38;;;28.08;51.84
20105;BME280;10212;42.714;23.310;2023-06-22T11:06:54;95547.72;;;28.20;48.23
20105;BME280;10212;42.714;23.310;2023-06-22T11:16:56;95535.44;;;28.82;48.08
20105;BME280;10212;42.714;23.310;2023-06-22T11:26:56;95526.09;;;29.47;42.78
20105;BME280;10212;42.714;23.310;2023-06-22T11:36:57;95524.56;;;28.87;46.49
20105;BME280;10212;42.714;23.310;2023-06-22T11:46:57;95529.97;;;28.33;48.63
20105;BME280;10212;42.714;23.310;2023-06-22T11:56:57;95514.84;;;28.05;47.47
20105;BME280;10212;42.714;23.310;2023-06-22T12:06:58;95519.81;;;28.21;49.95
20105;BME280;10212;42.714;23.310;2023-06-22T12:16:59;95535.47;;;27.44;52.62
20105;BME280;10212;42.714;23.310;2023-06-22T12:26:59;95554.88;;;25.41;66.32
20105;BME280;10212;42.714;23.310;2023-06-22T12:36:59;95564.69;;;24.07;71.96
20105;BME280;10212;42.714;23.310;2023-06-22T12:47:00;95563.75;;;23.93;72.78
20105;BME280;10212;42.714;23.310;2023-06-22T12:57:01;95580.09;;;24.51;67.94
20105;BME280;10212;42.714;23.310;2023-06-22T13:07:01;95587.03;;;24.81;67.65
20105;BME280;10212;42.714;23.310;2023-06-22T13:17:02;95595.19;;;24.96;66.64
20105;BME280;10212;42.714;23.310;2023-06-22T13:27:02;95595.28;;;24.50;69.69
20105;BME280;10212;42.714;23.310;2023-06-22T13:37:03;95582.84;;;24.05;72.43
20105;BME280;10212;42.714;23.310;2023-06-22T13:47:04;95575.59;;;23.71;77.38
20105;BME280;10212;42.714;23.310;2023-06-22T13:57:06;95567.09;;;23.69;76.23
20105;BME280;10212;42.714;23.310;2023-06-22T14:07:06;95575.66;;;23.60;77.01
20105;BME280;10212;42.714;23.310;2023-06-22T14:17:06;95586.38;;;23.45;79.21
20105;BME280;10212;42.714;23.310;2023-06-22T14:27:07;95596.81;;;23.25;79.83
20105;BME280;10212;42.714;23.310;2023-06-22T14:37:09;95597.56;;;23.47;80.50
20105;BME280;10212;42.714;23.310;2023-06-22T14:47:09;95596.75;;;23.92;79.37
20105;BME280;10212;42.714;23.310;2023-06-22T14:57:10;95593.97;;;24.13;79.52
20105;BME280;10212;42.714;23.310;2023-06-22T15:07:10;95564.88;;;23.81;79.53
20105;BME280;10212;42.714;23.310;2023-06-22T15:17:11;95553.59;;;24.00;78.02
20105;BME280;10212;42.714;23.310;2023-06-22T15:27:14;95544.91;;;24.24;78.95
20105;BME280;10212;42.714;23.310;2023-06-22T15:37:14;95542.59;;;24.96;68.37
20105;BME280;10212;42.714;23.310;2023-06-22T15:47:16;95554.97;;;24.87;68.32
20105;BME280;10212;42.714;23.310;2023-06-22T15:57:21;95559.41;;;24.02;76.70
20105;BME280;10212;42.714;23.310;2023-06-22T16:07:22;95556.00;;;23.51;75.43
20105;BME280;10212;42.714;23.310;2023-06-22T16:17:24;95571.88;;;23.67;73.96
20105;BME280;10212;42.714;23.310;2023-06-22T16:27:28;95570.38;;;23.55;76.13
20105;BME280;10212;42.714;23.310;2023-06-22T16:37:29;95565.00;;;23.60;78.40
20105;BME280;10212;42.714;23.310;2023-06-22T16:47:30;95563.97;;;23.56;78.91
20105;BME280;10212;42.714;23.310;2023-06-22T16:57:30;95564.47;;;23.64;78.90
20105;BME280;10212;42.714;23.310;2023-06-22T17:07:33;95567.72;;;23.50;79.19
20105;BME280;10212;42.714;23.310;2023-06-22T17:17:34;95569.97;;;23.22;81.67
20105;BME280;10212;42.714;23.310;2023-06-22T17:27:36;95560.97;;;23.02;84.04
20105;BME280;10212;42.714;23.310;2023-06-22T17:47:52;95550.97;;;22.78;90.67
20105;BME280;10212;42.714;23.310;2023-06-22T17:57:57;95560.00;;;22.61;92.51
20105;BME280;10212;42.714;23.310;2023-06-22T18:08:02;95552.06;;;22.40;94.16
20105;BME280;10212;42.714;23.310;2023-06-22T18:18:04;95564.00;;;22.27;95.83
20105;BME280;10212;42.714;23.310;2023-06-22T18:28:05;95564.00;;;22.33;95.75
20105;BME280;10212;42.714;23.310;2023-06-22T18:38:07;95568.53;;;22.16;96.79
20105;BME280;10212;42.714;23.310;2023-06-22T18:48:08;95580.75;;;21.91;97.72
20105;BME280;10212;42.714;23.310;2023-06-22T18:58:13;95600.31;;;21.75;99.16
20105;BME280;10212;42.714;23.310;2023-06-22T19:08:14;95607.69;;;21.62;99.70
20105;BME280;10212;42.714;23.310;2023-06-22T19:18:22;95616.09;;;21.28;100.00
20105;BME280;10212;42.714;23.310;2023-06-22T19:28:24;95623.75;;;21.24;100.00
20105;BME280;10212;42.714;23.310;2023-06-22T19:38:26;95617.03;;;21.06;100.00
20105;BME280;10212;42.714;23.310;2023-06-22T19:48:28;95604.97;;;20.88;100.00
20105;BME280;10212;42.714;23.310;2023-06-22T19:58:31;95606.84;;;20.87;100.00
20105;BME280;10212;42.714;23.310;2023-06-22T20:08:44;95592.84;;;20.59;100.00
20105;BME280;10212;42.714;23.310;2023-06-22T20:18:45;95582.84;;;20.66;100.00
20105;BME280;10212;42.714;23.310;2023-06-22T20:28:45;95570.00;;;20.47;100.00
20105;BME280;10212;42.714;23.310;2023-06-22T20:38:46;95575.31;;;20.47;100.00
20105;BME280;10212;42.714;23.310;2023-06-22T20:48:47;95568.88;;;20.38;100.00
20105;BME280;10212;42.714;23.310;2023-06-22T20:58:50;95568.84;;;20.33;100.00
20105;BME280;10212;42.714;23.310;2023-06-22T21:08:50;95569.78;;;20.16;100.00
20105;BME280;10212;42.714;23.310;2023-06-22T21:18:50;95568.97;;;20.16;100.00
20105;BME280;10212;42.714;23.310;2023-06-22T21:28:51;95566.47;;;20.04;100.00
20105;BME280;10212;42.714;23.310;2023-06-22T21:38:51;95559.19;;;19.61;100.00
20105;BME280;10212;42.714;23.310;2023-06-22T21:48:52;95558.97;;;19.40;100.00
20105;BME280;10212;42.714;23.310;2023-06-22T21:58:53;95547.34;;;19.41;100.00
20105;BME280;10212;42.714;23.310;2023-06-22T22:08:54;95554.84;;;19.27;100.00
20105;BME280;10212;42.714;23.310;2023-06-22T22:18:54;95550.28;;;19.17;100.00
20105;BME280;10212;42.714;23.310;2023-06-22T22:28:55;95555.50;;;19.12;100.00
20105;BME280;10212;42.714;23.310;2023-06-22T22:38:57;95547.41;;;19.01;100.00
20105;BME280;10212;42.714;23.310;2023-06-22T22:48:57;95539.41;;;18.96;100.00
20105;BME280;10212;42.714;23.310;2023-06-22T22:58:57;95533.50;;;18.89;100.00
20105;BME280;10212;42.714;23.310;2023-06-22T23:08:58;95530.50;;;18.63;100.00
20105;BME280;10212;42.714;23.310;2023-06-22T23:18:59;95533.50;;;18.49;100.00
20105;BME280;10212;42.714;23.310;2023-06-22T23:29:00;95527.59;;;18.42;100.00
20105;BME280;10212;42.714;23.310;2023-06-22T23:39:00;95528.16;;;18.44;100.00
20105;BME280;10212;42.714;23.310;2023-06-22T23:49:01;95520.78;;;18.12;100.00
20105;BME280;10212;42.714;23.310;2023-06-22T23:59:02;95521.47;;;18.19;100.00
